createdAt,value
2022-09-07T00:01:50.762Z,48.50
2022-09-07T00:04:18.087Z,48.60
2022-09-07T00:06:44.901Z,48.90
2022-09-07T00:09:11.677Z,48.80
2022-09-07T00:11:38.474Z,48.70
2022-09-07T00:14:06.098Z,48.60
2022-09-07T00:16:32.908Z,48.80
2022-09-07T00:19:00.858Z,48.60
2022-09-07T00:21:27.697Z,48.90
2022-09-07T00:23:54.549Z,48.50
2022-09-07T00:26:22.221Z,48.60
2022-09-07T00:28:49.026Z,48.90
2022-09-07T00:31:17.068Z,48.90
2022-09-07T00:33:44.390Z,48.80
2022-09-07T00:36:11.365Z,48.40
2022-09-07T00:38:38.148Z,48.50
2022-09-07T00:41:05.149Z,48.50
2022-09-07T00:43:36.967Z,48.60
2022-09-07T00:46:04.243Z,47.20
2022-09-07T00:48:38.876Z,48.40
2022-09-07T00:51:06.562Z,46.90
2022-09-07T00:53:34.727Z,48.20
2022-09-07T00:56:01.585Z,48.60
2022-09-07T00:58:28.432Z,48.20
2022-09-07T01:00:55.842Z,48.20
2022-09-07T01:03:24.641Z,48.40
2022-09-07T01:05:58.878Z,48.30
2022-09-07T01:08:25.655Z,46.70
2022-09-07T01:10:52.501Z,48.30
2022-09-07T01:13:19.250Z,48.10
2022-09-07T01:16:04.674Z,48.10
2022-09-07T01:18:46.648Z,46.50
2022-09-07T01:21:16.171Z,46.70
2022-09-07T01:23:46.081Z,46.60
2022-09-07T01:26:12.849Z,46.70
2022-09-07T01:28:39.681Z,48.00
2022-09-07T01:31:25.050Z,47.90
2022-09-07T01:33:54.990Z,46.70
2022-09-07T01:36:25.970Z,48.20
2022-09-07T01:38:53.212Z,48.40
2022-09-07T01:41:38.472Z,48.20
2022-09-07T01:44:10.723Z,46.70
2022-09-07T01:46:56.456Z,46.60
2022-09-07T01:49:29.214Z,46.50
2022-09-07T01:51:57.690Z,46.60
2022-09-07T01:54:29.247Z,48.20
2022-09-07T01:56:57.068Z,48.30
2022-09-07T01:59:30.551Z,48.50
2022-09-07T02:02:10.844Z,46.40
2022-09-07T02:04:42.449Z,46.40
2022-09-07T02:07:09.218Z,46.60
2022-09-07T02:09:38.005Z,47.60
2022-09-07T02:12:06.968Z,48.20
2022-09-07T02:14:37.314Z,48.00
2022-09-07T02:17:12.306Z,46.40
2022-09-07T02:19:42.785Z,46.20
2022-09-07T02:22:10.516Z,46.40
2022-09-07T02:24:38.279Z,48.20
2022-09-07T02:27:12.481Z,48.30
2022-09-07T02:29:39.361Z,48.00
2022-09-07T02:32:06.218Z,48.00
2022-09-07T02:34:32.994Z,47.40
2022-09-07T02:37:00.330Z,47.60
2022-09-07T02:39:27.191Z,48.00
2022-09-07T02:41:54.016Z,47.50
2022-09-07T02:44:21.628Z,47.80
2022-09-07T02:46:54.424Z,48.00
2022-09-07T02:49:40.054Z,46.20
2022-09-07T02:52:09.544Z,46.20
2022-09-07T02:54:54.022Z,46.10
2022-09-07T02:57:47.027Z,46.10
2022-09-07T03:00:15.737Z,46.10
2022-09-07T03:02:53.734Z,47.90
2022-09-07T03:05:21.879Z,46.00
2022-09-07T03:07:53.629Z,47.90
2022-09-07T03:10:20.420Z,45.80
2022-09-07T03:12:48.301Z,47.40
2022-09-07T03:15:21.926Z,48.10
2022-09-07T03:17:48.995Z,45.80
2022-09-07T03:20:17.185Z,47.70
2022-09-07T03:22:44.419Z,47.40
2022-09-07T03:25:11.223Z,47.70
2022-09-07T03:27:38.011Z,47.40
2022-09-07T03:30:05.523Z,47.30
2022-09-07T03:32:32.817Z,47.10
2022-09-07T03:34:59.959Z,47.90
2022-09-07T03:37:26.737Z,47.60
2022-09-07T03:39:53.588Z,47.40
2022-09-07T03:42:20.483Z,47.40
2022-09-07T03:44:49.510Z,47.40
2022-09-07T03:47:16.469Z,47.70
2022-09-07T03:49:43.336Z,47.40
2022-09-07T03:52:10.092Z,47.30
2022-09-07T03:54:39.652Z,47.30
2022-09-07T03:57:06.825Z,47.30
2022-09-07T03:59:33.678Z,47.30
2022-09-07T04:02:00.533Z,47.20
2022-09-07T04:04:27.327Z,47.10
2022-09-07T04:06:54.124Z,47.20
2022-09-07T04:09:20.891Z,47.10
2022-09-07T04:11:47.639Z,47.00
2022-09-07T04:14:14.380Z,47.10
2022-09-07T04:16:41.254Z,47.10
2022-09-07T04:19:08.052Z,47.10
2022-09-07T04:21:34.835Z,47.20
2022-09-07T04:24:01.733Z,47.10
2022-09-07T04:26:29.540Z,47.00
2022-09-07T04:28:56.312Z,47.50
2022-09-07T04:31:23.312Z,47.10
2022-09-07T04:33:50.261Z,47.00
2022-09-07T04:36:17.487Z,46.90
2022-09-07T04:38:44.292Z,47.60
2022-09-07T04:41:12.891Z,47.10
2022-09-07T04:43:39.951Z,47.40
2022-09-07T04:46:07.550Z,47.20
2022-09-07T04:48:34.434Z,47.40
2022-09-07T04:51:07.307Z,46.90
2022-09-07T04:53:34.619Z,45.70
2022-09-07T04:56:01.502Z,47.40
2022-09-07T04:58:28.358Z,46.70
2022-09-07T05:00:57.702Z,46.80
2022-09-07T05:03:24.524Z,46.70
2022-09-07T05:05:51.272Z,46.70
2022-09-07T05:08:18.071Z,47.10
2022-09-07T05:10:51.560Z,46.80
2022-09-07T05:13:18.401Z,45.30
2022-09-07T05:15:45.161Z,46.90
2022-09-07T05:18:13.782Z,47.50
2022-09-07T05:20:41.085Z,47.00
2022-09-07T05:23:07.890Z,47.30
2022-09-07T05:25:34.766Z,46.70
2022-09-07T05:28:01.624Z,46.80
2022-09-07T05:33:15.103Z,47.10
2022-09-07T05:35:41.857Z,46.70
2022-09-07T05:38:08.668Z,47.10
2022-09-07T05:40:40.363Z,46.90
2022-09-07T05:43:09.921Z,46.90
2022-09-07T05:45:36.707Z,47.00
2022-09-07T05:48:03.520Z,47.00
2022-09-07T05:50:30.356Z,46.90
2022-09-07T05:52:58.988Z,46.60
2022-09-07T05:55:30.344Z,47.30
2022-09-07T05:57:57.631Z,46.70
2022-09-07T06:00:24.440Z,46.90
2022-09-07T06:02:51.345Z,46.70
2022-09-07T06:05:18.218Z,46.80
2022-09-07T06:07:48.043Z,46.90
2022-09-07T06:13:01.859Z,47.00
2022-09-07T06:15:28.681Z,46.80
2022-09-07T06:17:55.468Z,46.60
2022-09-07T06:20:22.276Z,47.00
2022-09-07T06:22:49.022Z,46.80
2022-09-07T06:25:15.831Z,46.80
2022-09-07T06:27:42.595Z,46.60
2022-09-07T06:30:09.709Z,46.80
2022-09-07T06:32:45.259Z,46.20
2022-09-07T06:35:12.389Z,47.10
2022-09-07T06:47:33.550Z,47.20
2022-09-07T06:50:00.344Z,46.60
2022-09-07T06:52:28.237Z,46.80
2022-09-07T06:57:22.700Z,47.20
2022-09-07T06:59:49.494Z,47.10
2022-09-07T07:02:16.280Z,47.60
2022-09-07T07:04:43.043Z,47.60
2022-09-07T07:07:10.556Z,47.70
2022-09-07T07:09:37.757Z,48.50
2022-09-07T07:12:04.513Z,48.00
2022-09-07T07:14:34.415Z,47.80
2022-09-07T07:17:03.146Z,48.10
2022-09-07T07:19:29.871Z,47.80
2022-09-07T07:24:43.374Z,47.70
2022-09-07T07:27:10.155Z,49.80
2022-09-07T07:29:36.941Z,51.40
2022-09-07T07:32:04.365Z,51.30
2022-09-07T07:34:31.294Z,50.10
2022-09-07T07:36:58.128Z,49.10
2022-09-07T07:42:12.473Z,48.90
2022-09-07T07:44:39.240Z,48.70
2022-09-07T07:47:06.177Z,47.70
2022-09-07T07:49:33.157Z,47.80
2022-09-07T07:54:46.639Z,46.70
2022-09-07T07:57:13.482Z,46.70
2022-09-07T07:59:40.287Z,46.20
2022-09-07T08:02:08.914Z,46.20
2022-09-07T08:04:35.905Z,46.00
2022-09-07T08:07:08.618Z,45.70
2022-09-07T08:09:38.041Z,45.40
2022-09-07T08:12:04.758Z,45.60
2022-09-07T08:14:31.697Z,44.70
2022-09-07T08:16:58.380Z,44.80
2022-09-07T08:19:25.071Z,44.90
2022-09-07T08:21:51.778Z,44.20
2022-09-07T08:24:19.311Z,44.40
2022-09-07T08:26:46.036Z,44.30
2022-09-07T08:29:13.283Z,44.00
2022-09-07T08:31:40.156Z,43.70
2022-09-07T08:34:07.774Z,43.10
2022-09-07T08:36:34.493Z,43.20
2022-09-07T08:39:01.231Z,42.30
2022-09-07T08:41:46.938Z,41.70
2022-09-07T08:44:19.829Z,40.40
2022-09-07T08:47:05.184Z,39.90
2022-09-07T08:49:50.716Z,39.60
2022-09-07T08:52:20.525Z,39.40
2022-09-07T08:54:58.592Z,39.80
2022-09-07T08:57:27.084Z,41.20
2022-09-07T09:00:17.187Z,41.00
2022-09-07T09:05:53.780Z,41.60
2022-09-07T09:06:11.650Z,39.80
2022-09-07T09:08:40.792Z,39.60
2022-09-07T09:11:07.483Z,41.00
2022-09-07T09:13:52.966Z,41.00
2022-09-07T09:16:24.283Z,38.60
2022-09-07T09:18:51.021Z,38.80
2022-09-07T09:21:18.785Z,40.30
2022-09-07T09:23:46.593Z,39.80
2022-09-07T09:26:26.409Z,39.50
2022-09-07T09:28:53.200Z,37.20
2022-09-07T09:31:20.962Z,38.90
2022-09-07T09:34:07.289Z,39.40
2022-09-07T09:36:41.205Z,37.40
2022-09-07T09:39:26.737Z,37.30
2022-09-07T09:41:54.855Z,37.20
2022-09-07T09:44:21.563Z,39.30
2022-09-07T09:47:29.621Z,39.10
2022-09-07T09:49:36.385Z,39.30
2022-09-07T09:54:51.984Z,39.30
2022-09-07T09:57:38.882Z,39.60
2022-09-07T10:00:10.979Z,39.40
2022-09-07T10:05:27.224Z,38.90
2022-09-07T10:07:53.983Z,39.40
2022-09-07T10:10:20.678Z,38.80
2022-09-07T10:12:47.360Z,38.60
2022-09-07T10:15:34.471Z,38.50
2022-09-07T10:18:06.359Z,36.90
2022-09-07T10:20:35.049Z,36.80
2022-09-07T10:23:01.960Z,38.40
2022-09-07T10:25:28.773Z,38.30
2022-09-07T10:28:11.616Z,37.90
2022-09-07T10:30:45.709Z,36.70
2022-09-07T10:33:12.457Z,37.30
2022-09-07T10:35:48.165Z,39.00
2022-09-07T10:38:21.403Z,37.90
2022-09-07T10:41:02.774Z,37.60
2022-09-07T10:43:49.862Z,38.20
2022-09-07T10:49:10.028Z,38.50
2022-09-07T10:51:48.904Z,39.30
2022-09-07T10:54:37.286Z,38.00
2022-09-07T10:57:24.418Z,38.20
2022-09-07T11:00:12.374Z,38.80
2022-09-07T11:02:39.389Z,37.50
2022-09-07T11:05:42.295Z,39.40
2022-09-07T11:09:15.176Z,36.70
2022-09-07T11:12:00.772Z,37.50
2022-09-07T11:14:14.915Z,37.80
2022-09-07T11:16:52.127Z,37.50
2022-09-07T11:19:36.365Z,39.60
2022-09-07T11:22:05.847Z,37.90
2022-09-07T11:24:37.902Z,39.90
2022-09-07T11:27:09.152Z,37.90
2022-09-07T11:29:38.900Z,38.10
2022-09-07T11:32:13.170Z,37.90
2022-09-07T11:34:41.171Z,38.20
2022-09-07T11:37:09.388Z,40.40
2022-09-07T11:39:40.242Z,39.60
2022-09-07T11:42:43.485Z,39.40
2022-09-07T11:45:40.183Z,40.30
2022-09-07T11:48:33.385Z,39.00
2022-09-07T11:51:04.536Z,39.30
2022-09-07T11:53:39.275Z,41.30
2022-09-07T11:56:14.014Z,40.40
2022-09-07T11:58:59.413Z,40.40
2022-09-07T12:01:44.923Z,40.30
2022-09-07T12:04:16.598Z,40.30
2022-09-07T12:06:56.884Z,42.10
2022-09-07T12:09:26.657Z,40.30
2022-09-07T12:11:53.344Z,40.20
2022-09-07T12:14:38.968Z,41.70
2022-09-07T12:17:24.432Z,40.00
2022-09-07T12:20:23.736Z,39.90
2022-09-07T12:22:58.831Z,40.00
2022-09-07T12:25:29.061Z,39.90
2022-09-07T12:27:55.767Z,41.60
2022-09-07T12:30:22.720Z,41.50
2022-09-07T12:32:54.182Z,41.50
2022-09-07T12:35:28.238Z,40.10
2022-09-07T12:37:55.317Z,39.60
2022-09-07T12:40:28.691Z,41.40
2022-09-07T12:43:13.511Z,39.50
2022-09-07T12:45:40.299Z,39.60
2022-09-07T12:48:16.098Z,40.70
2022-09-07T12:51:02.315Z,39.20
2022-09-07T12:53:30.995Z,39.30
2022-09-07T12:56:16.717Z,41.30
2022-09-07T12:58:49.956Z,39.60
2022-09-07T13:01:27.145Z,39.70
2022-09-07T13:03:58.312Z,39.60
2022-09-07T13:09:27.846Z,41.30
2022-09-07T13:11:54.555Z,39.40
2022-09-07T13:14:23.262Z,40.70
2022-09-07T13:19:46.139Z,40.90
2022-09-07T13:22:31.226Z,39.50
2022-09-07T13:24:59.705Z,39.60
2022-09-07T13:27:41.779Z,41.50
2022-09-07T13:30:17.804Z,39.50
2022-09-07T13:35:31.995Z,40.50
2022-09-07T13:37:59.294Z,40.90
2022-09-07T13:40:33.275Z,41.20
2022-09-07T13:43:00.106Z,39.60
2022-09-07T13:45:45.486Z,40.80
2022-09-07T13:48:31.067Z,39.60
2022-09-07T13:51:07.858Z,39.80
2022-09-07T13:53:51.118Z,38.80
2022-09-07T13:56:27.017Z,38.70
2022-09-07T13:58:53.802Z,39.00
2022-09-07T14:01:26.855Z,40.30
2022-09-07T14:03:53.590Z,39.00
2022-09-07T14:06:20.265Z,40.70
2022-09-07T14:08:50.699Z,40.30
2022-09-07T14:11:18.115Z,38.30
2022-09-07T14:13:45.082Z,38.40
2022-09-07T14:16:11.804Z,39.50
2022-09-07T14:18:39.153Z,39.90
2022-09-07T14:21:09.171Z,39.60
2022-09-07T14:23:36.780Z,40.10
2022-09-07T14:26:17.985Z,40.10
2022-09-07T14:28:49.141Z,38.20
2022-09-07T14:31:16.849Z,39.20
2022-09-07T14:33:51.044Z,39.20
2022-09-07T14:36:41.759Z,36.80
2022-09-07T14:39:05.730Z,38.50
2022-09-07T14:41:34.727Z,38.70
2022-09-07T14:44:01.560Z,38.20
2022-09-07T14:46:29.024Z,36.30
2022-09-07T14:48:56.976Z,36.90
2022-09-07T14:51:32.697Z,37.10
2022-09-07T14:54:05.927Z,37.10
2022-09-07T14:56:40.200Z,35.00
2022-09-07T14:59:25.662Z,35.20
2022-09-07T15:02:11.510Z,35.30
2022-09-07T15:04:38.318Z,37.10
2022-09-07T15:07:24.027Z,36.90
2022-09-07T15:09:50.879Z,35.00
2022-09-07T15:12:29.754Z,36.60
2022-09-07T15:15:10.416Z,34.90
2022-09-07T15:17:44.820Z,36.70
2022-09-07T15:20:30.953Z,37.30
2022-09-07T15:22:58.079Z,36.10
2022-09-07T15:25:24.760Z,38.20
2022-09-07T15:27:51.506Z,38.40
2022-09-07T15:30:18.324Z,38.70
2022-09-07T15:32:45.053Z,38.80
2022-09-07T15:35:11.806Z,39.30
2022-09-07T15:40:25.289Z,39.60
2022-09-07T15:42:59.798Z,39.90
2022-09-07T15:45:26.946Z,40.20
2022-09-07T15:47:53.830Z,40.40
2022-09-07T15:50:23.230Z,41.00
2022-09-07T15:52:50.143Z,40.80
2022-09-07T15:55:17.644Z,40.90
2022-09-07T15:57:48.705Z,40.90
2022-09-07T16:00:15.826Z,40.80
2022-09-07T16:05:31.403Z,41.30
2022-09-07T16:10:53.461Z,41.20
2022-09-07T16:13:20.705Z,41.70
2022-09-07T16:15:47.576Z,41.30
2022-09-07T16:18:17.864Z,41.00
2022-09-07T16:20:44.836Z,41.70
2022-09-07T16:23:13.680Z,41.40
2022-09-07T16:25:42.373Z,42.50
2022-09-07T16:28:09.261Z,41.80
2022-09-07T16:30:38.916Z,42.40
2022-09-07T16:33:05.879Z,42.30
2022-09-07T16:35:33.025Z,41.70
2022-09-07T16:40:46.821Z,42.70
2022-09-07T16:43:13.648Z,42.40
2022-09-07T16:48:27.089Z,42.90
2022-09-07T16:51:00.399Z,42.50
2022-09-07T16:53:29.094Z,42.80
2022-09-07T16:56:02.302Z,43.20
2022-09-07T16:58:37.636Z,41.60
2022-09-07T17:01:08.227Z,43.50
2022-09-07T17:03:35.809Z,41.80
2022-09-07T17:06:02.728Z,43.60
2022-09-07T17:08:29.543Z,43.30
2022-09-07T17:11:03.601Z,43.60
2022-09-07T17:13:30.752Z,42.20
2022-09-07T17:16:04.086Z,44.20
2022-09-07T17:21:17.862Z,43.80
2022-09-07T17:23:53.925Z,43.70
2022-09-07T17:26:26.053Z,44.10
2022-09-07T17:28:53.596Z,44.30
2022-09-07T17:34:08.750Z,44.50
2022-09-07T17:36:35.582Z,44.00
2022-09-07T17:39:19.143Z,45.10
2022-09-07T17:41:52.627Z,44.00
2022-09-07T17:44:19.690Z,44.70
2022-09-07T17:46:46.413Z,44.00
2022-09-07T17:49:14.512Z,44.20
2022-09-07T17:51:41.480Z,44.50
2022-09-07T17:54:10.187Z,44.30
2022-09-07T17:56:37.953Z,44.70
2022-09-07T18:01:53.766Z,44.10
2022-09-07T18:04:20.561Z,44.70
2022-09-07T18:06:47.269Z,44.30
2022-09-07T18:09:14.120Z,44.90
2022-09-07T18:11:47.113Z,44.60
2022-09-07T18:14:14.815Z,45.00
2022-09-07T18:16:42.044Z,45.00
2022-09-07T18:19:08.842Z,44.80
2022-09-07T18:21:36.110Z,44.70
2022-09-07T18:24:04.994Z,45.50
2022-09-07T18:26:32.099Z,45.20
2022-09-07T18:29:13.000Z,45.40
2022-09-07T18:31:45.868Z,45.20
2022-09-07T18:34:12.680Z,44.80
2022-09-07T18:36:44.161Z,45.00
2022-09-07T18:39:13.206Z,45.30
2022-09-07T18:41:40.823Z,45.30
2022-09-07T18:45:27.093Z,45.30
2022-09-07T18:46:54.517Z,44.70
2022-09-07T18:49:21.262Z,45.30
2022-09-07T18:54:34.646Z,44.90
2022-09-07T18:57:01.354Z,44.60
2022-09-07T18:59:29.554Z,43.50
2022-09-07T19:02:00.130Z,45.80
2022-09-07T19:07:17.799Z,45.50
2022-09-07T19:09:44.499Z,45.30
2022-09-07T19:12:11.195Z,46.30
2022-09-07T19:14:39.098Z,45.70
2022-09-07T19:17:05.778Z,46.30
2022-09-07T19:19:34.293Z,47.90
2022-09-07T19:22:02.467Z,48.70
2022-09-07T19:24:29.208Z,48.90
2022-09-07T19:27:00.220Z,48.80
2022-09-07T19:29:27.598Z,48.50
2022-09-07T19:32:07.615Z,48.30
2022-09-07T19:34:34.901Z,47.10
2022-09-07T19:37:01.889Z,48.70
2022-09-07T19:39:28.710Z,48.10
2022-09-07T19:41:55.816Z,48.20
2022-09-07T19:44:22.539Z,48.10
2022-09-07T19:46:49.301Z,48.10
2022-09-07T19:49:16.307Z,47.60
2022-09-07T19:51:43.089Z,47.90
2022-09-07T19:54:10.204Z,47.60
2022-09-07T19:56:37.171Z,47.70
2022-09-07T19:59:03.869Z,47.90
2022-09-07T20:01:30.899Z,47.70
2022-09-07T20:03:58.532Z,47.90
2022-09-07T20:06:25.321Z,48.10
2022-09-07T20:08:52.100Z,61.60
2022-09-07T20:11:18.785Z,61.30
2022-09-07T20:25:37.920Z,46.30
2022-09-07T20:28:04.660Z,44.30
2022-09-07T20:30:33.668Z,43.70
2022-09-07T20:33:00.613Z,43.20
2022-09-07T20:35:27.311Z,43.10
2022-09-07T20:37:54.040Z,41.70
2022-09-07T20:40:20.808Z,41.00
2022-09-07T20:42:47.720Z,43.50
2022-09-07T20:45:14.462Z,43.50
2022-09-07T20:47:41.251Z,43.70
2022-09-07T20:50:08.067Z,44.30
2022-09-07T20:52:34.740Z,45.10
2022-09-07T20:55:01.431Z,45.20
2022-09-07T20:57:28.112Z,45.10
2022-09-07T20:59:54.801Z,45.10
2022-09-07T21:02:21.548Z,44.90
2022-09-07T21:04:48.362Z,45.00
2022-09-07T21:07:15.034Z,45.00
2022-09-07T21:09:41.836Z,44.80
2022-09-07T21:12:08.537Z,41.20
2022-09-07T21:14:35.657Z,41.20
2022-09-07T21:17:02.378Z,42.10
2022-09-07T21:19:29.076Z,44.20
2022-09-07T21:21:55.763Z,45.10
2022-09-07T21:24:22.710Z,45.30
2022-09-07T21:26:49.633Z,45.80
2022-09-07T21:29:17.363Z,46.10
2022-09-07T21:31:44.143Z,46.40
2022-09-07T21:34:10.920Z,46.70
2022-09-07T21:36:37.622Z,46.80
2022-09-07T21:39:04.737Z,47.10
2022-09-07T21:41:31.504Z,47.00
2022-09-07T21:43:58.665Z,47.00
2022-09-07T21:46:25.443Z,47.30
2022-09-07T21:48:52.210Z,47.10
2022-09-07T21:51:18.977Z,47.50
2022-09-07T21:53:45.684Z,47.40
2022-09-07T21:56:13.138Z,47.60
2022-09-07T21:58:43.728Z,47.70
2022-09-07T22:01:15.042Z,47.50
2022-09-07T22:03:41.797Z,47.50
2022-09-07T22:06:08.696Z,47.90
2022-09-07T22:08:35.968Z,48.10
2022-09-07T22:11:03.711Z,48.10
2022-09-07T22:13:30.518Z,48.10
2022-09-07T22:15:57.269Z,48.20
2022-09-07T22:18:24.048Z,48.00
2022-09-07T22:21:00.289Z,47.90
2022-09-07T22:23:27.005Z,47.80
2022-09-07T22:25:53.762Z,47.80
2022-09-07T22:28:20.444Z,48.20
2022-09-07T22:30:47.140Z,48.10
2022-09-07T22:33:13.808Z,48.20
2022-09-07T22:35:40.483Z,48.30
2022-09-07T22:38:07.463Z,48.30
2022-09-07T22:40:34.155Z,48.00
2022-09-07T22:43:00.843Z,48.00
2022-09-07T22:45:27.540Z,47.70
2022-09-07T22:47:54.255Z,47.50
2022-09-07T22:50:20.960Z,47.40
2022-09-07T22:52:47.635Z,47.50
2022-09-07T22:55:14.506Z,47.30
2022-09-07T22:57:41.181Z,47.30
2022-09-07T23:00:08.326Z,47.10
2022-09-07T23:02:35.032Z,47.00
2022-09-07T23:05:01.770Z,47.20
2022-09-07T23:07:28.492Z,47.10
2022-09-07T23:09:55.191Z,47.10
2022-09-07T23:12:21.851Z,47.00
2022-09-07T23:14:48.747Z,47.10
2022-09-07T23:17:15.438Z,47.80
2022-09-07T23:19:42.127Z,47.00
2022-09-07T23:22:08.814Z,47.20
2022-09-07T23:24:35.479Z,46.80
2022-09-07T23:27:02.154Z,46.90
2022-09-07T23:29:28.839Z,46.90
2022-09-07T23:31:55.646Z,46.80
2022-09-07T23:34:22.343Z,46.80
2022-09-07T23:36:49.028Z,46.90
2022-09-07T23:39:16.408Z,47.00
2022-09-07T23:41:43.098Z,47.00
2022-09-07T23:44:09.780Z,47.00
2022-09-07T23:46:36.541Z,46.80
2022-09-07T23:49:03.317Z,47.50
2022-09-07T23:51:30.031Z,46.70
2022-09-07T23:53:56.712Z,46.70
2022-09-07T23:56:24.605Z,46.80
2022-09-07T23:58:51.479Z,46.80
